Time;durP1;ratioP1;P1;durP2;ratioP2;P2;SDS_P1;SDS_P2;PMS_P1;PMS_P2;Temp;Humidity;BMP_temperature;BMP_pressure;BME280_temperature;BME280_humidity;BME280_pressure;Samples;Min_cycle;Max_cycle;Signal;HPM_P1;HPM_P2
2023/08/22 00:02:28;;;;;;;9.82;8.93;;;20.50;99.90;;;;;;5204764;28;20037;-75
2023/08/22 00:04:59;;;;;;;12.68;8.38;;;20.40;99.90;;;;;;5204394;28;20112;-75
2023/08/22 00:07:30;;;;;;;9.13;8.07;;;20.30;99.90;;;;;;5204166;28;20104;-75
2023/08/22 00:10:03;;;;;;;10.15;8.30;;;20.20;99.90;;;;;;5204305;28;20648;-75
2023/08/22 00:12:35;;;;;;;8.77;7.88;;;20.20;99.90;;;;;;5202622;28;20400;-75
2023/08/22 00:15:09;;;;;;;8.52;7.63;;;20.30;99.90;;;;;;5202351;28;20476;-75
2023/08/22 00:17:41;;;;;;;11.65;8.43;;;20.30;99.90;;;;;;5202797;28;20025;-75
2023/08/22 00:20:13;;;;;;;9.00;8.20;;;20.20;99.90;;;;;;5199671;28;20121;-75
2023/08/22 00:22:44;;;;;;;8.93;7.93;;;20.20;99.90;;;;;;5203729;28;20487;-75
2023/08/22 00:25:15;;;;;;;8.77;7.90;;;20.30;99.90;;;;;;5205232;28;20026;-75
2023/08/22 00:27:46;;;;;;;9.48;8.10;;;20.20;99.90;;;;;;5201006;28;20022;-75
2023/08/22 00:30:16;;;;;;;9.73;7.72;;;20.00;99.90;;;;;;5204230;28;20044;-76
2023/08/22 00:32:47;;;;;;;8.73;7.78;;;20.20;99.90;;;;;;5203929;28;20033;-76
2023/08/22 00:35:18;;;;;;;9.70;8.68;;;20.00;99.90;;;;;;5205237;28;20038;-76
2023/08/22 00:37:49;;;;;;;10.13;9.13;;;20.10;99.90;;;;;;5203630;28;20488;-76
2023/08/22 00:40:20;;;;;;;10.18;9.38;;;20.10;99.90;;;;;;5205081;28;20108;-75
2023/08/22 00:42:51;;;;;;;9.38;8.57;;;20.10;99.90;;;;;;5204443;28;20036;-75
2023/08/22 00:45:22;;;;;;;10.63;9.45;;;20.00;99.90;;;;;;5205160;28;20103;-75
2023/08/22 00:47:53;;;;;;;11.68;10.68;;;20.00;99.90;;;;;;5203852;28;20591;-76
2023/08/22 00:50:24;;;;;;;13.77;12.57;;;20.00;99.90;;;;;;5205014;28;20105;-75
2023/08/22 00:52:55;;;;;;;12.93;11.70;;;20.10;99.90;;;;;;5204611;28;20412;-75
2023/08/22 00:55:26;;;;;;;13.68;12.68;;;20.00;99.90;;;;;;5195982;28;20101;-75
2023/08/22 00:57:57;;;;;;;18.08;11.88;;;20.00;99.90;;;;;;5204050;28;20048;-75
2023/08/22 01:00:28;;;;;;;13.18;12.07;;;19.90;99.90;;;;;;5203817;28;20032;-76
2023/08/22 01:02:59;;;;;;;10.77;9.77;;;19.90;99.90;;;;;;5206656;28;20025;-76
2023/08/22 01:05:32;;;;;;;10.90;9.80;;;20.00;99.90;;;;;;5207371;28;20152;-75
2023/08/22 01:08:17;;;;;;;11.20;9.63;;;20.00;99.90;;;;;;5207280;28;20030;-75
2023/08/22 01:10:54;;;;;;;10.27;9.05;;;19.90;99.90;;;;;;5198076;28;20026;-75
2023/08/22 01:13:34;;;;;;;11.75;9.38;;;20.00;99.90;;;;;;5206675;28;20104;-75
2023/08/22 01:16:06;;;;;;;10.13;9.13;;;19.90;99.90;;;;;;5208951;28;20381;-75
2023/08/22 01:18:40;;;;;;;10.77;9.40;;;19.90;99.90;;;;;;5208505;28;20046;-76
2023/08/22 01:21:19;;;;;;;11.48;10.27;;;19.90;99.90;;;;;;5208416;28;20022;-75
2023/08/22 01:23:50;;;;;;;11.37;10.27;;;19.90;99.90;;;;;;5207991;28;20017;-76
2023/08/22 01:26:22;;;;;;;11.38;9.52;;;20.00;99.90;;;;;;5207616;28;20116;-75
2023/08/22 01:28:59;;;;;;;11.23;9.90;;;20.10;99.90;;;;;;5207887;28;20021;-75
2023/08/22 01:32:00;;;;;;;12.45;9.77;;;20.00;99.90;;;;;;5207989;28;20025;-75
2023/08/22 01:34:39;;;;;;;10.23;9.13;;;20.00;99.90;;;;;;5206061;28;20128;-75
2023/08/22 01:37:14;;;;;;;11.57;9.65;;;19.90;99.90;;;;;;5205164;28;20040;-76
2023/08/22 01:39:46;;;;;;;12.63;10.10;;;20.00;99.90;;;;;;5207918;28;20025;-76
2023/08/22 01:42:17;;;;;;;11.55;10.45;;;20.00;99.90;;;;;;5207982;28;20462;-75
2023/08/22 01:44:48;;;;;;;13.25;11.60;;;20.20;99.90;;;;;;5206977;28;20026;-76
2023/08/22 01:47:19;;;;;;;13.68;10.77;;;20.10;99.90;;;;;;5207920;28;20067;-74
2023/08/22 01:49:50;;;;;;;12.05;10.85;;;20.00;99.90;;;;;;5207584;28;20041;-75
2023/08/22 01:52:20;;;;;;;12.68;11.52;;;19.90;99.90;;;;;;5205937;28;20037;-75
2023/08/22 01:54:51;;;;;;;12.48;11.48;;;19.90;99.90;;;;;;5206723;28;20013;-74
2023/08/22 01:57:22;;;;;;;12.27;11.13;;;20.00;99.90;;;;;;5206332;28;20481;-76
2023/08/22 01:59:53;;;;;;;13.63;12.52;;;19.90;99.90;;;;;;5205897;28;20095;-74
2023/08/22 02:02:24;;;;;;;13.80;12.43;;;19.90;99.90;;;;;;5205159;28;20025;-74
2023/08/22 02:04:55;;;;;;;14.23;12.90;;;19.90;99.90;;;;;;5205173;28;20461;-75
2023/08/22 02:07:26;;;;;;;12.02;10.85;;;20.00;99.90;;;;;;5206188;28;20052;-75
2023/08/22 02:09:57;;;;;;;14.93;12.90;;;19.80;99.90;;;;;;5206697;28;20037;-76
2023/08/22 02:12:28;;;;;;;12.93;11.70;;;20.00;99.90;;;;;;5207121;28;20397;-75
2023/08/22 02:14:59;;;;;;;12.93;11.82;;;19.90;99.90;;;;;;5207400;28;20034;-74
2023/08/22 02:17:30;;;;;;;13.85;12.45;;;19.90;99.90;;;;;;5207167;28;20040;-76
2023/08/22 02:20:01;;;;;;;12.95;11.85;;;19.90;99.90;;;;;;5206982;28;20075;-74
2023/08/22 02:22:32;;;;;;;12.35;11.05;;;20.00;99.90;;;;;;5207391;28;20361;-76
2023/08/22 02:25:05;;;;;;;12.68;11.07;;;20.00;99.90;;;;;;5685091;22;20009;-75
2023/08/22 02:27:39;;;;;;;11.57;10.48;;;19.90;99.90;;;;;;5248060;28;20033;-75
2023/08/22 02:30:10;;;;;;;13.25;10.77;;;19.90;99.90;;;;;;5246674;28;20089;-75
2023/08/22 02:32:41;;;;;;;12.35;11.13;;;20.00;99.90;;;;;;5248502;28;20020;-74
2023/08/22 02:35:12;;;;;;;12.05;10.95;;;19.90;99.90;;;;;;5247272;28;20094;-75
2023/08/22 02:37:43;;;;;;;13.25;11.65;;;19.80;99.90;;;;;;5246520;28;20021;-74
2023/08/22 02:40:14;;;;;;;12.05;10.80;;;20.00;99.90;;;;;;5247911;28;20025;-75
2023/08/22 02:42:45;;;;;;;16.58;11.23;;;19.90;99.90;;;;;;5247911;28;20021;-76
2023/08/22 02:45:15;;;;;;;13.93;11.40;;;19.80;99.90;;;;;;5248161;28;20489;-75
2023/08/22 02:47:46;;;;;;;13.40;11.18;;;19.80;99.90;;;;;;5247053;28;20016;-75
2023/08/22 02:50:17;;;;;;;15.10;11.70;;;19.80;99.90;;;;;;5247214;28;20036;-75
2023/08/22 02:52:49;;;;;;;12.90;11.50;;;19.80;99.90;;;;;;5246575;28;20025;-76
2023/08/22 02:55:20;;;;;;;12.80;11.57;;;19.90;99.90;;;;;;5252321;28;20051;-76
2023/08/22 02:57:51;;;;;;;13.48;11.52;;;19.80;99.90;;;;;;5266076;28;20024;-76
2023/08/22 03:00:22;;;;;;;16.67;12.85;;;19.80;99.90;;;;;;5266576;28;20089;-75
2023/08/22 03:02:53;;;;;;;15.80;14.43;;;19.80;99.90;;;;;;5262072;28;20028;-75
2023/08/22 03:05:24;;;;;;;16.02;13.75;;;19.90;99.90;;;;;;5267116;28;20047;-75
2023/08/22 03:07:55;;;;;;;12.60;11.40;;;19.90;99.90;;;;;;5267069;28;20024;-75
2023/08/22 03:10:26;;;;;;;12.50;11.20;;;19.80;99.90;;;;;;5267295;28;20032;-75
2023/08/22 03:12:56;;;;;;;13.35;11.48;;;19.80;99.90;;;;;;5268345;28;20099;-75
2023/08/22 03:15:29;;;;;;;13.05;11.80;;;19.80;99.90;;;;;;5268202;28;20036;-75
2023/08/22 03:18:00;;;;;;;13.90;11.60;;;19.90;99.90;;;;;;5268075;28;20046;-75
2023/08/22 03:20:31;;;;;;;14.75;12.93;;;20.00;99.90;;;;;;5265814;28;20344;-74
2023/08/22 03:23:05;;;;;;;15.70;11.50;;;19.80;99.90;;;;;;5266695;28;20043;-73
2023/08/22 03:25:36;;;;;;;21.20;12.15;;;19.90;99.90;;;;;;5266729;28;20044;-73
2023/08/22 03:28:07;;;;;;;13.57;12.30;;;20.00;99.90;;;;;;5267859;28;20052;-74
2023/08/22 03:30:37;;;;;;;14.60;11.15;;;20.00;99.90;;;;;;5267982;28;20024;-75
2023/08/22 03:33:08;;;;;;;13.57;11.23;;;19.90;99.90;;;;;;5266794;28;20054;-75
2023/08/22 03:35:39;;;;;;;14.10;12.07;;;19.90;99.90;;;;;;5268183;28;20091;-75
2023/08/22 03:38:10;;;;;;;15.90;12.90;;;20.00;99.90;;;;;;5268187;28;20106;-74
2023/08/22 03:40:41;;;;;;;13.80;12.52;;;19.90;99.90;;;;;;5266784;28;20020;-76
2023/08/22 03:43:12;;;;;;;15.40;13.40;;;19.90;99.90;;;;;;5267406;28;20150;-76
2023/08/22 03:45:43;;;;;;;17.48;13.30;;;20.00;99.90;;;;;;5266636;28;20672;-75
2023/08/22 03:48:15;;;;;;;14.82;13.38;;;20.00;99.90;;;;;;5266555;28;20028;-76
2023/08/22 03:50:46;;;;;;;16.00;14.50;;;20.10;99.90;;;;;;5266149;28;20012;-76
2023/08/22 03:53:16;;;;;;;26.52;13.75;;;20.30;99.90;;;;;;5266381;28;20036;-76
2023/08/22 03:55:47;;;;;;;18.50;14.25;;;20.20;99.90;;;;;;5266085;28;20073;-75
2023/08/22 03:58:18;;;;;;;15.75;14.07;;;20.20;99.90;;;;;;5264949;28;20046;-75
2023/08/22 04:00:49;;;;;;;15.02;13.50;;;20.30;99.90;;;;;;5266179;28;20524;-75
2023/08/22 04:03:20;;;;;;;14.82;13.23;;;20.20;99.90;;;;;;5265722;28;20059;-75
2023/08/22 04:05:51;;;;;;;13.35;12.07;;;20.50;99.90;;;;;;5259055;28;20048;-76
2023/08/22 04:08:22;;;;;;;14.27;12.18;;;20.50;99.90;;;;;;5267630;28;20066;-75
2023/08/22 04:10:53;;;;;;;14.40;12.35;;;20.40;99.90;;;;;;5265676;28;20387;-75
2023/08/22 04:13:24;;;;;;;13.35;11.88;;;20.50;99.90;;;;;;5267126;28;20384;-75
2023/08/22 04:15:55;;;;;;;12.63;11.07;;;20.50;99.90;;;;;;5259196;28;20028;-74
2023/08/22 04:18:26;;;;;;;14.07;11.68;;;20.60;99.90;;;;;;5267196;28;20040;-75
2023/08/22 04:20:57;;;;;;;13.63;11.95;;;20.70;99.90;;;;;;5267202;28;20043;-76
2023/08/22 04:23:27;;;;;;;13.20;11.32;;;20.70;99.90;;;;;;5261345;28;20418;-75
2023/08/22 04:25:58;;;;;;;14.75;12.68;;;20.80;99.90;;;;;;5266698;28;20491;-75
2023/08/22 04:28:29;;;;;;;13.52;12.25;;;21.10;99.90;;;;;;5267492;28;20483;-74
2023/08/22 04:31:00;;;;;;;17.38;12.63;;;21.00;99.90;;;;;;5266641;28;20028;-75
2023/08/22 04:33:31;;;;;;;13.50;12.02;;;21.10;99.90;;;;;;5261187;28;20025;-75
2023/08/22 04:36:03;;;;;;;14.23;12.27;;;21.20;99.90;;;;;;5264407;28;20768;-75
2023/08/22 04:38:34;;;;;;;17.05;12.65;;;21.30;99.90;;;;;;5270639;28;20036;-75
2023/08/22 04:41:05;;;;;;;14.93;13.45;;;21.40;99.90;;;;;;5261908;28;20082;-74
2023/08/22 04:43:36;;;;;;;18.10;14.20;;;21.50;99.90;;;;;;5267766;28;20044;-75
2023/08/22 04:46:07;;;;;;;15.02;13.63;;;21.60;99.90;;;;;;5268658;28;20035;-76
2023/08/22 04:48:38;;;;;;;14.18;12.77;;;21.70;99.90;;;;;;5269307;28;20035;-75
2023/08/22 04:51:08;;;;;;;14.07;12.77;;;21.70;99.90;;;;;;5269799;28;20069;-75
2023/08/22 04:53:39;;;;;;;16.13;14.43;;;21.80;99.90;;;;;;5264098;28;20036;-74
2023/08/22 04:56:10;;;;;;;18.85;14.20;;;22.00;99.90;;;;;;5257880;28;20059;-75
2023/08/22 04:58:41;;;;;;;16.15;14.45;;;22.20;99.90;;;;;;5271136;28;20044;-75
2023/08/22 05:01:12;;;;;;;17.13;15.48;;;22.30;99.90;;;;;;5270252;28;20020;-76
2023/08/22 05:03:43;;;;;;;17.75;15.18;;;22.30;99.90;;;;;;5268242;28;20032;-75
2023/08/22 05:06:13;;;;;;;16.17;14.68;;;22.40;99.90;;;;;;5268570;28;20451;-75
2023/08/22 05:08:44;;;;;;;18.55;15.32;;;22.60;99.90;;;;;;5269666;28;20455;-76
2023/08/22 05:11:15;;;;;;;17.13;15.48;;;22.60;99.90;;;;;;5269560;28;20467;-76
2023/08/22 05:13:46;;;;;;;16.80;15.13;;;22.80;99.90;;;;;;5267975;28;20020;-76
2023/08/22 05:16:17;;;;;;;18.85;15.80;;;23.00;99.90;;;;;;5269794;28;20103;-75
2023/08/22 05:18:48;;;;;;;16.42;14.23;;;23.10;99.90;;;;;;5267672;28;20032;-75
2023/08/22 05:21:18;;;;;;;16.33;14.43;;;23.30;99.90;;;;;;5262349;28;20148;-75
2023/08/22 05:23:49;;;;;;;16.52;14.88;;;23.30;99.90;;;;;;5267849;28;20043;-76
2023/08/22 05:26:20;;;;;;;15.50;14.02;;;23.50;99.90;;;;;;5268216;28;20055;-75
2023/08/22 05:28:51;;;;;;;15.40;12.93;;;23.60;99.90;;;;;;5268894;28;20028;-75
2023/08/22 05:31:23;;;;;;;14.38;12.65;;;23.80;99.90;;;;;;5269085;28;20043;-75
2023/08/22 05:33:54;;;;;;;13.55;11.23;;;23.90;99.90;;;;;;5263430;28;20024;-75
2023/08/22 05:36:25;;;;;;;14.93;10.23;;;24.10;99.90;;;;;;5263436;28;20052;-75
2023/08/22 05:38:56;;;;;;;17.00;11.68;;;24.30;99.90;;;;;;5269379;28;20570;-75
2023/08/22 05:41:26;;;;;;;16.58;11.25;;;24.50;99.90;;;;;;5268301;28;20032;-76
2023/08/22 05:43:57;;;;;;;13.27;11.48;;;24.50;99.90;;;;;;5268104;28;20036;-75
2023/08/22 05:46:28;;;;;;;14.60;11.90;;;24.70;99.90;;;;;;5266606;28;20059;-75
2023/08/22 05:48:59;;;;;;;16.20;13.60;;;24.80;99.90;;;;;;5268390;28;20059;-76
2023/08/22 05:51:30;;;;;;;15.82;10.85;;;25.00;99.90;;;;;;5268777;28;20020;-75
2023/08/22 05:54:01;;;;;;;14.88;9.85;;;25.10;99.90;;;;;;5262770;28;20028;-76
2023/08/22 05:56:31;;;;;;;13.23;9.98;;;25.20;99.90;;;;;;5268996;28;20069;-76
2023/08/22 05:59:03;;;;;;;10.70;9.70;;;25.30;99.90;;;;;;5283757;28;20119;-76
2023/08/22 06:01:34;;;;;;;10.10;8.95;;;25.40;99.90;;;;;;5268723;28;20025;-77
2023/08/22 06:04:04;;;;;;;11.63;9.85;;;25.50;99.90;;;;;;5267914;28;20122;-76
2023/08/22 06:06:35;;;;;;;11.43;10.32;;;25.60;99.90;;;;;;5265364;28;20467;-77
2023/08/22 06:09:06;;;;;;;13.90;10.57;;;25.80;99.90;;;;;;5268201;28;20051;-77
2023/08/22 06:11:37;;;;;;;12.50;10.30;;;25.80;99.90;;;;;;5268807;28;20036;-76
2023/08/22 06:14:08;;;;;;;10.80;9.38;;;26.00;99.90;;;;;;5260918;28;20089;-76
2023/08/22 06:16:39;;;;;;;13.70;9.82;;;26.10;99.90;;;;;;5269971;28;20020;-75
2023/08/22 06:19:10;;;;;;;11.52;9.52;;;26.20;99.90;;;;;;5257354;28;20060;-76
2023/08/22 06:21:41;;;;;;;12.60;9.13;;;26.20;99.90;;;;;;5264835;28;20079;-76
2023/08/22 06:24:12;;;;;;;11.88;10.23;;;26.30;99.90;;;;;;5268509;28;20028;-76
2023/08/22 06:26:43;;;;;;;13.00;11.82;;;26.40;99.90;;;;;;5268552;28;20063;-76
2023/08/22 06:29:15;;;;;;;13.65;10.68;;;26.50;99.90;;;;;;5266870;28;20036;-77
2023/08/22 06:31:46;;;;;;;13.13;11.77;;;26.60;99.90;;;;;;5266005;28;20114;-77
2023/08/22 06:34:17;;;;;;;12.75;11.55;;;26.60;99.90;;;;;;5262778;28;20460;-77
2023/08/22 06:36:48;;;;;;;14.23;10.50;;;26.80;99.90;;;;;;5263845;28;20066;-77
2023/08/22 06:39:19;;;;;;;10.98;9.20;;;26.80;99.90;;;;;;5268296;28;20461;-77
2023/08/22 06:41:50;;;;;;;12.10;9.82;;;26.90;99.90;;;;;;5269224;28;20114;-77
2023/08/22 06:44:20;;;;;;;12.70;9.25;;;27.00;99.90;;;;;;5269284;28;20051;-76
2023/08/22 06:46:51;;;;;;;15.30;9.85;;;27.00;99.90;;;;;;5269734;28;20020;-77
2023/08/22 06:49:22;;;;;;;18.02;8.95;;;27.10;99.90;;;;;;5269148;28;20634;-77
2023/08/22 06:51:53;;;;;;;19.60;9.85;;;27.10;99.90;;;;;;5268425;28;20027;-76
2023/08/22 06:54:24;;;;;;;16.00;10.13;;;27.20;99.90;;;;;;5268579;28;20436;-76
2023/08/22 06:56:55;;;;;;;12.88;11.15;;;27.30;99.90;;;;;;5267547;28;20028;-77
2023/08/22 06:59:26;;;;;;;13.07;11.80;;;27.40;99.90;;;;;;5267843;28;20048;-77
2023/08/22 07:01:58;;;;;;;13.90;12.23;;;27.40;99.90;;;;;;5268247;28;20028;-77
2023/08/22 07:04:31;;;;;;;14.02;11.88;;;27.50;99.90;;;;;;5269333;28;20020;-76
2023/08/22 07:07:02;;;;;;;10.90;9.90;;;27.70;99.90;;;;;;5261638;28;20028;-76
2023/08/22 07:09:33;;;;;;;12.80;11.23;;;27.60;99.90;;;;;;5266350;28;20035;-77
2023/08/22 07:12:04;;;;;;;13.70;11.27;;;27.60;99.90;;;;;;5265985;28;20036;-77
2023/08/22 07:14:36;;;;;;;12.15;10.20;;;27.80;99.90;;;;;;5268792;28;20051;-77
2023/08/22 07:17:07;;;;;;;13.00;11.57;;;27.80;99.90;;;;;;5260321;28;20024;-77
2023/08/22 07:19:38;;;;;;;25.88;12.48;;;27.90;99.90;;;;;;5264270;28;20043;-76
2023/08/22 07:22:09;;;;;;;13.98;12.07;;;27.90;99.90;;;;;;5266440;28;20039;-75
2023/08/22 07:24:40;;;;;;;12.90;11.57;;;28.00;99.90;;;;;;5266584;28;20050;-77
2023/08/22 07:27:11;;;;;;;14.15;12.57;;;28.10;99.90;;;;;;5267980;28;20055;-77
2023/08/22 07:29:42;;;;;;;14.68;13.07;;;28.10;99.90;;;;;;5268496;28;20024;-77
2023/08/22 07:32:13;;;;;;;13.77;12.23;;;28.20;99.90;;;;;;5268717;28;20036;-77
2023/08/22 07:34:44;;;;;;;12.45;11.25;;;28.20;99.90;;;;;;5268652;28;20085;-77
2023/08/22 07:37:15;;;;;;;16.05;11.43;;;28.30;99.90;;;;;;5268159;28;20024;-76
2023/08/22 07:39:46;;;;;;;11.60;10.43;;;28.30;99.90;;;;;;5267562;28;20364;-77
2023/08/22 07:42:17;;;;;;;13.07;11.77;;;28.30;99.90;;;;;;5268244;28;20032;-77
2023/08/22 07:44:47;;;;;;;12.70;11.40;;;28.40;99.90;;;;;;5265131;28;20027;-77
2023/08/22 07:47:18;;;;;;;12.15;10.98;;;28.30;99.90;;;;;;5261529;28;20036;-76
2023/08/22 07:49:49;;;;;;;12.98;10.40;;;28.60;99.90;;;;;;5268146;28;20085;-77
2023/08/22 07:52:20;;;;;;;11.48;9.95;;;28.60;99.90;;;;;;5267693;28;20036;-76
2023/08/22 07:54:51;;;;;;;12.35;9.77;;;28.80;99.90;;;;;;5267803;28;20055;-76
2023/08/22 07:57:22;;;;;;;11.10;9.88;;;28.90;99.90;;;;;;5268368;28;20045;-75
2023/08/22 07:59:53;;;;;;;11.98;9.57;;;28.80;99.90;;;;;;5268203;28;20379;-75
2023/08/22 08:02:24;;;;;;;11.40;10.32;;;28.80;99.90;;;;;;5268545;28;20048;-76
2023/08/22 08:04:55;;;;;;;13.88;11.38;;;28.90;99.90;;;;;;5259844;28;20401;-76
2023/08/22 08:07:26;;;;;;;12.85;11.23;;;28.90;99.90;;;;;;5263968;28;20020;-77
2023/08/22 08:09:57;;;;;;;14.45;10.55;;;29.00;99.90;;;;;;5267102;28;20119;-76
2023/08/22 08:12:28;;;;;;;14.80;8.98;;;29.10;99.90;;;;;;5268133;28;20024;-76
2023/08/22 08:14:59;;;;;;;15.10;8.07;;;29.30;99.90;;;;;;5267924;28;20487;-77
2023/08/22 08:17:30;;;;;;;8.15;7.28;;;29.20;99.90;;;;;;5267847;28;20027;-76
2023/08/22 08:20:02;;;;;;;8.98;7.35;;;29.40;99.90;;;;;;5267693;28;20079;-76
2023/08/22 08:22:33;;;;;;;10.65;6.93;;;29.40;99.90;;;;;;5267779;28;20472;-75
2023/08/22 08:25:04;;;;;;;9.50;7.22;;;29.50;99.90;;;;;;5267396;28;20027;-75
2023/08/22 08:27:35;;;;;;;11.00;6.95;;;29.50;99.90;;;;;;5267818;28;20488;-76
2023/08/22 08:30:07;;;;;;;9.10;7.43;;;29.60;99.90;;;;;;5267898;28;20078;-76
2023/08/22 08:32:38;;;;;;;9.60;6.93;;;29.50;99.90;;;;;;5257251;28;20170;-77
2023/08/22 08:35:09;;;;;;;9.65;6.68;;;29.60;99.90;;;;;;5266779;28;20469;-76
2023/08/22 08:37:40;;;;;;;10.45;6.88;;;29.70;99.90;;;;;;5261436;28;20028;-77
2023/08/22 08:40:11;;;;;;;11.35;7.43;;;29.70;99.90;;;;;;5267112;28;20548;-76
2023/08/22 08:42:42;;;;;;;10.10;8.10;;;29.70;99.90;;;;;;5267228;28;20077;-75
2023/08/22 08:45:15;;;;;;;11.85;7.82;;;29.80;99.90;;;;;;5267602;28;20095;-76
2023/08/22 08:47:46;;;;;;;11.55;7.97;;;29.80;99.90;;;;;;5267213;28;20103;-76
2023/08/22 08:50:17;;;;;;;10.48;7.65;;;29.90;99.90;;;;;;5258911;28;20429;-77
2023/08/22 08:52:48;;;;;;;10.52;6.65;;;30.10;99.90;;;;;;5266978;28;20024;-76
2023/08/22 08:55:25;;;;;;;8.63;7.07;;;30.10;99.90;;;;;;5265921;28;20036;-76
2023/08/22 08:57:56;;;;;;;11.05;7.45;;;30.10;99.90;;;;;;5264853;28;20060;-77
2023/08/22 09:00:29;;;;;;;11.57;7.95;;;30.10;99.90;;;;;;5256879;28;20066;-75
2023/08/22 09:03:00;;;;;;;8.25;7.55;;;30.20;99.90;;;;;;5262758;28;20028;-75
2023/08/22 09:05:32;;;;;;;12.60;8.00;;;30.10;99.90;;;;;;5262932;28;20032;-76
2023/08/22 09:08:18;;;;;;;8.95;7.25;;;30.20;99.90;;;;;;5263565;28;20032;-76
2023/08/22 09:10:53;;;;;;;8.05;6.88;;;30.40;99.90;;;;;;5265298;28;20487;-79
2023/08/22 09:13:26;;;;;;;11.18;7.65;;;30.40;99.90;;;;;;5264399;28;20498;-77
2023/08/22 09:16:00;;;;;;;7.95;6.97;;;30.30;99.90;;;;;;5264316;28;20028;-77
2023/08/22 09:18:31;;;;;;;8.32;7.13;;;30.40;99.90;;;;;;5259537;28;20036;-77
2023/08/22 09:21:04;;;;;;;12.30;6.72;;;30.50;99.90;;;;;;5266171;28;20349;-78
2023/08/22 09:23:34;;;;;;;11.98;6.30;;;30.50;99.90;;;;;;5268407;28;20044;-78
2023/08/22 09:26:05;;;;;;;33.20;7.20;;;30.70;99.90;;;;;;5267827;28;20068;-77
2023/08/22 09:28:39;;;;;;;8.10;5.93;;;30.60;99.90;;;;;;5269855;28;20035;-77
2023/08/22 09:31:20;;;;;;;9.73;6.53;;;30.70;99.90;;;;;;5270033;28;20024;-77
2023/08/22 09:33:51;;;;;;;10.70;6.57;;;30.80;99.90;;;;;;5268518;28;20036;-77
2023/08/22 09:36:23;;;;;;;10.95;6.55;;;30.80;99.90;;;;;;5262364;28;20020;-76
2023/08/22 09:38:58;;;;;;;7.63;6.38;;;30.80;99.90;;;;;;5265813;28;20406;-76
2023/08/22 09:41:29;;;;;;;10.48;6.55;;;31.00;99.90;;;;;;5266400;28;20436;-77
2023/08/22 09:44:03;;;;;;;12.10;7.28;;;31.00;99.90;;;;;;5266075;28;20059;-76
2023/08/22 09:46:35;;;;;;;11.88;6.68;;;31.10;99.90;;;;;;5267204;28;20051;-78
2023/08/22 09:49:11;;;;;;;7.43;5.95;;;31.10;99.90;;;;;;5266877;28;20032;-78
2023/08/22 09:51:44;;;;;;;10.40;5.80;;;31.20;99.90;;;;;;5267000;28;20487;-78
2023/08/22 09:54:15;;;;;;;7.28;5.78;;;31.30;99.90;;;;;;5264812;28;20020;-80
2023/08/22 09:56:46;;;;;;;8.00;5.68;;;31.30;99.90;;;;;;5265629;28;20766;-77
2023/08/22 09:59:18;;;;;;;16.23;6.47;;;31.50;99.90;;;;;;5262316;28;20049;-79
2023/08/22 10:01:50;;;;;;;7.90;6.03;;;31.40;99.90;;;;;;5255847;28;20063;-76
2023/08/22 10:04:23;;;;;;;9.23;6.30;;;31.40;99.90;;;;;;5267358;28;20024;-76
2023/08/22 10:06:54;;;;;;;8.65;5.97;;;31.50;99.90;;;;;;5258494;28;20107;-77
2023/08/22 10:09:26;;;;;;;11.00;7.00;;;31.50;99.90;;;;;;5247409;28;20029;-76
2023/08/22 10:12:04;;;;;;;13.38;6.72;;;31.50;99.90;;;;;;5263842;28;20016;-76
2023/08/22 10:14:43;;;;;;;9.32;6.88;;;31.50;99.90;;;;;;5264065;28;20024;-75
2023/08/22 10:17:14;;;;;;;9.98;6.93;;;31.50;99.90;;;;;;5256591;28;20367;-76
2023/08/22 10:19:45;;;;;;;12.52;7.15;;;31.80;99.90;;;;;;5262691;28;20119;-75
2023/08/22 10:22:16;;;;;;;12.90;7.43;;;31.80;99.90;;;;;;5267974;28;20099;-75
2023/08/22 10:24:48;;;;;;;8.25;6.72;;;31.90;99.90;;;;;;5270124;28;20129;-76
2023/08/22 10:27:19;;;;;;;10.25;7.18;;;31.80;99.90;;;;;;5268758;28;20044;-76
2023/08/22 10:30:12;;;;;;;10.88;5.85;;;32.00;99.90;;;;;;5268832;28;20032;-76
2023/08/22 10:33:03;;;;;;;15.75;6.18;;;31.90;99.90;;;;;;5268242;28;20028;-76
2023/08/22 10:35:34;;;;;;;10.02;5.72;;;32.00;99.90;;;;;;5264676;28;20368;-76
2023/08/22 10:38:05;;;;;;;10.32;6.13;;;31.90;99.90;;;;;;5269254;28;20028;-77
2023/08/22 10:40:36;;;;;;;7.93;6.38;;;32.00;99.90;;;;;;5267810;28;20127;-76
2023/08/22 10:43:10;;;;;;;9.20;5.68;;;32.10;99.90;;;;;;5267506;28;20031;-74
2023/08/22 10:46:00;;;;;;;7.68;6.53;;;32.10;99.90;;;;;;5267063;28;20035;-74
2023/08/22 10:48:31;;;;;;;13.80;5.75;;;32.10;99.90;;;;;;5251243;28;20085;-75
2023/08/22 10:51:06;;;;;;;12.38;5.68;;;32.10;99.90;;;;;;5263378;28;20028;-77
2023/08/22 10:53:42;;;;;;;13.90;5.93;;;32.20;99.90;;;;;;5265811;28;20054;-74
2023/08/22 10:56:19;;;;;;;9.00;5.95;;;32.50;99.90;;;;;;5267418;28;20024;-76
2023/08/22 10:58:58;;;;;;;9.77;6.53;;;32.40;99.90;;;;;;5261778;28;20040;-75
2023/08/22 11:01:29;;;;;;;;;;;32.30;99.90;;;;;;5266015;28;20028;-77
2023/08/22 11:04:01;;;;;;;12.50;6.88;;;32.40;99.90;;;;;;5267492;28;19908;-76
2023/08/22 11:06:37;;;;;;;11.38;6.22;;;32.60;99.90;;;;;;5251628;28;20850;-75
2023/08/22 11:09:11;;;;;;;14.15;6.43;;;32.60;99.90;;;;;;5261014;28;20054;-77
2023/08/22 11:11:42;;;;;;;7.93;6.90;;;32.60;99.90;;;;;;5267190;28;20419;-76
2023/08/22 11:14:13;;;;;;;7.00;5.63;;;32.60;99.90;;;;;;5265081;28;20020;-77
2023/08/22 11:16:45;;;;;;;16.80;6.03;;;32.60;99.90;;;;;;5256709;28;20066;-78
2023/08/22 11:19:17;;;;;;;13.38;6.22;;;32.60;99.90;;;;;;5266442;28;20430;-77
2023/08/22 11:21:48;;;;;;;7.43;6.78;;;32.70;99.90;;;;;;5265661;28;20028;-77
2023/08/22 11:37:11;;;;;;;10.73;7.25;;;32.60;99.90;;;;;;5306506;27;20468;-79
2023/08/22 11:40:01;;;;;;;10.23;7.65;;;32.70;99.90;;;;;;5305006;28;20028;-79
2023/08/22 11:42:33;;;;;;;8.60;7.78;;;32.70;99.90;;;;;;5305451;28;20031;-80
2023/08/22 11:45:04;;;;;;;14.98;6.85;;;32.60;99.90;;;;;;5306678;28;20039;-81
2023/08/22 11:47:48;;;;;;;11.85;6.38;;;32.40;99.90;;;;;;5306085;28;20022;-79
2023/08/22 11:50:29;;;;;;;15.60;7.20;;;32.40;99.90;;;;;;5288319;28;20023;-81
2023/08/22 11:53:11;;;;;;;12.43;7.22;;;32.60;99.90;;;;;;5306581;28;20011;-80
2023/08/22 11:55:47;;;;;;;12.52;6.97;;;32.50;99.90;;;;;;5305430;28;20023;-81
2023/08/22 11:58:17;;;;;;;9.73;7.95;;;32.70;99.90;;;;;;5285594;28;20023;-79
2023/08/22 12:00:54;;;;;;;8.55;7.10;;;32.40;99.90;;;;;;5284983;28;20057;-80
2023/08/22 12:03:37;;;;;;;14.80;7.82;;;32.30;99.90;;;;;;5282707;28;20023;-80
2023/08/22 12:06:12;;;;;;;10.98;6.93;;;32.60;99.90;;;;;;5283882;28;20044;-80
2023/08/22 12:08:54;;;;;;;11.20;6.50;;;32.50;99.90;;;;;;5285622;28;20020;-79
2023/08/22 12:11:26;;;;;;;11.50;6.50;;;32.70;99.90;;;;;;5281080;28;20068;-79
2023/08/22 12:13:57;;;;;;;13.80;8.02;;;32.70;99.90;;;;;;5285336;28;20098;-78
2023/08/22 12:16:28;;;;;;;13.15;7.90;;;32.70;99.90;;;;;;5285349;28;20028;-80
2023/08/22 12:19:10;;;;;;;12.73;7.63;;;32.80;99.90;;;;;;5266485;28;20481;-79
2023/08/22 12:21:41;;;;;;;13.20;7.47;;;32.60;99.90;;;;;;5285419;28;20035;-80
2023/08/22 12:24:12;;;;;;;11.57;7.28;;;32.60;99.90;;;;;;5285395;28;20470;-81
2023/08/22 12:26:42;;;;;;;7.90;7.10;;;32.40;99.90;;;;;;5284785;28;20049;-76
2023/08/22 12:29:13;;;;;;;12.50;6.95;;;32.60;99.90;;;;;;5285362;28;20011;-81
2023/08/22 12:31:44;;;;;;;9.18;7.38;;;32.70;99.90;;;;;;5284997;28;20081;-78
2023/08/22 12:34:15;;;;;;;16.50;7.05;;;32.50;99.90;;;;;;5283815;28;20024;-79
2023/08/22 12:36:46;;;;;;;10.85;7.40;;;32.70;99.90;;;;;;5276984;28;20356;-78
2023/08/22 12:39:17;;;;;;;13.30;7.00;;;32.80;99.90;;;;;;5269240;28;20035;-78
2023/08/22 12:41:48;;;;;;;10.38;7.63;;;32.60;99.90;;;;;;5268583;28;20047;-79
2023/08/22 12:44:19;;;;;;;13.70;7.45;;;32.50;99.90;;;;;;5269412;28;20020;-78
2023/08/22 12:46:51;;;;;;;14.32;7.57;;;32.40;99.90;;;;;;5268344;28;20046;-79
2023/08/22 12:49:22;;;;;;;11.48;7.32;;;32.40;99.90;;;;;;5250664;28;20024;-80
2023/08/22 12:51:53;;;;;;;10.88;6.80;;;32.60;99.90;;;;;;5268772;28;20027;-78
2023/08/22 12:54:24;;;;;;;11.02;7.35;;;32.50;99.90;;;;;;5270585;28;20074;-80
2023/08/22 12:56:56;;;;;;;15.07;7.63;;;32.40;99.90;;;;;;5269415;28;20039;-76
2023/08/22 12:59:27;;;;;;;17.65;7.25;;;32.50;99.90;;;;;;5269374;28;20012;-79
2023/08/22 13:01:57;;;;;;;16.35;7.53;;;32.60;99.90;;;;;;5268496;28;20394;-78
2023/08/22 13:04:28;;;;;;;15.93;7.53;;;32.70;99.90;;;;;;5268905;28;20549;-78
2023/08/22 13:06:59;;;;;;;8.30;6.85;;;32.50;99.90;;;;;;5269082;28;20040;-78
2023/08/22 13:09:32;;;;;;;11.70;7.18;;;32.40;99.90;;;;;;5267545;28;20090;-78
2023/08/22 13:12:03;;;;;;;11.93;6.85;;;32.40;99.90;;;;;;5267773;28;20023;-78